Map

Track Data

SID SEASON NUMBER BASIN SUBBASIN NAME ISO_TIME NATURE LAT LON WMO_WIND WMO_PRES WMO_AGENCY TRACK_TYPE DIST2LAND LANDFALL IFLAG USA_AGENCY USA_ATCF_ID USA_LAT USA_LON USA_RECORD USA_STATUS USA_WIND USA_PRES USA_SSHS USA_R34_NE USA_R34_SE USA_R34_SW USA_R34_NW USA_R50_NE USA_R50_SE USA_R50_SW USA_R50_NW USA_R64_NE USA_R64_SE USA_R64_SW USA_R64_NW USA_POCI USA_ROCI USA_RMW USA_EYE TOKYO_LAT TOKYO_LON TOKYO_GRADE TOKYO_WIND TOKYO_PRES TOKYO_R50_DIR TOKYO_R50_LONG TOKYO_R50_SHORT TOKYO_R30_DIR TOKYO_R30_LONG TOKYO_R30_SHORT TOKYO_LAND CMA_LAT CMA_LON CMA_CAT CMA_WIND CMA_PRES HKO_LAT HKO_LON HKO_CAT HKO_WIND HKO_PRES NEWDELHI_LAT NEWDELHI_LON NEWDELHI_GRADE NEWDELHI_WIND NEWDELHI_PRES NEWDELHI_CI NEWDELHI_DP NEWDELHI_POCI REUNION_LAT REUNION_LON REUNION_TYPE REUNION_WIND REUNION_PRES REUNION_TNUM REUNION_CI REUNION_RMW REUNION_R34_NE REUNION_R34_SE REUNION_R34_SW REUNION_R34_NW REUNION_R50_NE REUNION_R50_SE REUNION_R50_SW REUNION_R50_NW REUNION_R64_NE REUNION_R64_SE REUNION_R64_SW REUNION_R64_NW BOM_LAT BOM_LON BOM_TYPE BOM_WIND BOM_PRES BOM_TNUM BOM_CI BOM_RMW BOM_R34_NE BOM_R34_SE BOM_R34_SW BOM_R34_NW BOM_R50_NE BOM_R50_SE BOM_R50_SW BOM_R50_NW BOM_R64_NE BOM_R64_SE BOM_R64_SW BOM_R64_NW BOM_ROCI BOM_POCI BOM_EYE BOM_POS_METHOD BOM_PRES_METHOD NADI_LAT NADI_LON NADI_CAT NADI_WIND NADI_PRES WELLINGTON_LAT WELLINGTON_LON WELLINGTON_WIND WELLINGTON_PRES DS824_LAT DS824_LON DS824_STAGE DS824_WIND DS824_PRES TD9636_LAT TD9636_LON TD9636_STAGE TD9636_WIND TD9636_PRES TD9635_LAT TD9635_LON TD9635_WIND TD9635_PRES TD9635_ROCI NEUMANN_LAT NEUMANN_LON NEUMANN_CLASS NEUMANN_WIND NEUMANN_PRES MLC_LAT MLC_LON MLC_CLASS MLC_WIND MLC_PRES USA_GUST BOM_GUST BOM_GUST_PER REUNION_GUST REUNION_GUST_PER USA_SEAHGT USA_SEARAD_NE USA_SEARAD_SE USA_SEARAD_SW USA_SEARAD_NW STORM_SPEED STORM_DIR
1882255N19269 1882 29 NA GM NOT_NAMED 1882-09-11 12:00:00 TS 19.3000 -91.0000 main 11 11 _____________O -1 19.3000 -91.0000 TD 30 11 320
1882255N19269 1882 29 NA GM NOT_NAMED 1882-09-11 15:00:00 TS 19.7127 -91.3595 main 69 69 _____________P -1 19.7127 -91.3595 TD 30 10 321
1882255N19269 1882 29 NA GM NOT_NAMED 1882-09-11 18:00:00 TS 20.1000 -91.7000 main 113 113 _____________O -1 20.1000 -91.7000 TD 30 10 320
1882255N19269 1882 29 NA GM NOT_NAMED 1882-09-11 21:00:00 TS 20.4499 -92.0078 main 156 156 _____________P -1 20.4499 -92.0078 TD 30 9 321
1882255N19269 1882 29 NA GM NOT_NAMED 1882-09-12 00:00:00 TS 20.8000 -92.3000 main 190 190 _____________O -1 20.8000 -92.3000 TD 30 9 324
1882255N19269 1882 29 NA GM NOT_NAMED 1882-09-12 03:00:00 TS 21.1999 -92.6001 main 231 231 _____________P -1 21.1999 -92.6001 TD 30 10 325
1882255N19269 1882 29 NA GM NOT_NAMED 1882-09-12 06:00:00 TS 21.6000 -92.9000 main 274 274 _____________O -1 21.6000 -92.9000 TD 30 10 323
1882255N19269 1882 29 NA GM NOT_NAMED 1882-09-12 09:00:00 TS 21.9650 -93.2150 main 316 316 _____________P -1 21.9650 -93.2150 TD 32 9 322
1882255N19269 1882 29 NA GM NOT_NAMED 1882-09-12 12:00:00 TS 22.3000 -93.5000 main 356 356 _____________O -1 22.3000 -93.5000 TS 35 8 324
1882255N19269 1882 29 NA GM NOT_NAMED 1882-09-12 15:00:00 TS 22.6149 -93.7227 main 387 374 _____________P -1 22.6149 -93.7227 TS 37 7 328
1882255N19269 1882 29 NA GM NOT_NAMED 1882-09-12 18:00:00 TS 22.9000 -93.9000 main 378 373 _____________O -1 22.9000 -93.9000 TS 40 6 330
1882255N19269 1882 29 NA GM NOT_NAMED 1882-09-12 21:00:00 TS 23.1500 -94.0577 main 369 367 _____________P -1 23.1500 -94.0577 TS 42 6 331
1882255N19269 1882 29 NA GM NOT_NAMED 1882-09-13 00:00:00 TS 23.4000 -94.2000 main 367 355 _____________O -1 23.4000 -94.2000 TS 45 6 334
1882255N19269 1882 29 NA GM NOT_NAMED 1882-09-13 03:00:00 TS 23.7000 -94.3500 main 345 322 _____________P -1 23.7000 -94.3500 TS 47 7 335
1882255N19269 1882 29 NA GM NOT_NAMED 1882-09-13 06:00:00 TS 24.0000 -94.5000 main 322 303 _____________O -1 24.0000 -94.5000 TS 50 6 332
1882255N19269 1882 29 NA GM NOT_NAMED 1882-09-13 09:00:00 TS 24.2350 -94.6576 main 294 271 _____________P -1 24.2350 -94.6576 TS 50 6 331
1882255N19269 1882 29 NA GM NOT_NAMED 1882-09-13 12:00:00 TS 24.5000 -94.8000 main 271 244 _____________O -1 24.5000 -94.8000 TS 50 7 340
1882255N19269 1882 29 NA GM NOT_NAMED 1882-09-13 15:00:00 TS 24.8850 -94.9224 main 244 223 _____________P -1 24.8850 -94.9224 TS 50 8 347
1882255N19269 1882 29 NA GM NOT_NAMED 1882-09-13 18:00:00 TS 25.3000 -95.0000 main 223 204 _____________O -1 25.3000 -95.0000 TS 50 8 352
1882255N19269 1882 29 NA GM NOT_NAMED 1882-09-13 21:00:00 TS 25.6500 -95.0374 main 214 212 _____________P -1 25.6500 -95.0374 TS 50 14 51
1882255N19269 1882 29 NA GM NOT_NAMED 1882-09-14 00:00:00 TS 26.1667 -93.8333 30 hurdat_atl main 329 329 O____________O hurdat_atl AL031882 26.5000 -91.5000 TD 30 -1 26.0000 -95.0000 TS 50 19 61
1882255N19269 1882 29 NA GM NOT_NAMED 1882-09-14 03:00:00 TS 26.5663 -93.2276 main 332 296 P____________P AL031882 26.7325 -91.5900 TD 32 -1 26.4001 -94.8652 TS 47 11 48
1882255N19269 1882 29 NA GM NOT_NAMED 1882-09-14 06:00:00 TS 26.9200 -92.9000 35 hurdat_atl main 296 261 O____________O hurdat_atl AL031882 27.0000 -91.7000 TS 35 0 26.8000 -94.7000 TS 45 8 31
1882255N19269 1882 29 NA GM NOT_NAMED 1882-09-14 09:00:00 TS 27.2658 -92.7591 main 250 217 P____________P AL031882 27.3275 -91.8425 TS 37 0 27.1425 -94.5923 TS 45 7 4
1882255N19269 1882 29 NA GM NOT_NAMED 1882-09-14 12:00:00 TS 27.6333 -92.8333 40 hurdat_atl main 217 177 O____________O hurdat_atl AL031882 27.7000 -92.0000 TS 40 0 27.5000 -94.5000 TS 45 8 352
1882255N19269 1882 29 NA GM NOT_NAMED 1882-09-14 15:00:00 TS 28.0374 -92.8779 main 177 135 P____________P AL031882 28.0848 -92.1205 TS 42 0 27.9425 -94.3926 TS 45 8 352
1882255N19269 1882 29 NA GM NOT_NAMED 1882-09-14 18:00:00 TS 28.4667 -92.9667 45 hurdat_atl main 128 91 O____________O hurdat_atl AL031882 28.5000 -92.3000 TS 45 0 28.4000 -94.3000 TS 45 9 345
1882255N19269 1882 29 NA GM NOT_NAMED 1882-09-14 21:00:00 TS 28.9207 -93.1558 main 93 55 P____________P AL031882 28.9773 -92.6089 TS 47 0 28.8075 -94.2498 TS 45 9 336
1882255N19269 1882 29 NA GM NOT_NAMED 1882-09-15 00:00:00 TS 29.3333 -93.4000 50 hurdat_atl main 55 22 O____________O hurdat_atl AL031882 29.4000 -93.0000 TS 50 0 29.2000 -94.2000 TS 45 8 328
1882255N19269 1882 29 NA GM NOT_NAMED 1882-09-15 03:00:00 TS 29.6276 -93.6623 main 14 0 P____________P AL031882 29.6414 -93.4434 TS 50 0 29.6000 -94.1001 TS 42 7 324
1882255N19269 1882 29 NA GM NOT_NAMED 1882-09-15 05:00:00 TS 29.8222 -93.8101 50 hurdat_atl main 0 0 O____________P hurdat_atl AL031882 29.8000 -93.7000 L TS 50 0 29.8667 -94.0303 TS 40 7 330
1882255N19269 1882 29 NA GM NOT_NAMED 1882-09-15 06:00:00 TS 29.9333 -93.8667 50 hurdat_atl main 0 0 O____________O hurdat_atl AL031882 29.9000 -93.8000 TS 50 0 30.0000 -94.0000 TS 40 7 330
1882255N19269 1882 29 NA NA NOT_NAMED 1882-09-15 09:00:00 TS 30.2349 -94.0823 main 0 0 P____________P AL031882 30.1636 -94.1485 TS 45 0 30.3775 -93.9497 TS 37 7 325
1882255N19269 1882 29 NA NA NOT_NAMED 1882-09-15 12:00:00 TS 30.5091 -94.3364 40 hurdat_atl main 0 0 O____________O hurdat_atl AL031882 30.4000 -94.5000 TS 40 0 30.8000 -93.9000 TS 35 7 321
1882255N19269 1882 29 NA NA NOT_NAMED 1882-09-15 15:00:00 TS 30.7779 -94.5867 main 0 0 P____________P AL031882 30.6424 -94.7802 TS 37 0 31.3200 -93.8130 TS 32 7 322
1882255N19269 1882 29 NA NA NOT_NAMED 1882-09-15 18:00:00 TS 31.0429 -94.8143 35 hurdat_atl main 0 0 O____________O hurdat_atl AL031882 30.9000 -95.0000 TS 35 0 31.9000 -93.7000 TD 30 6 310
1882255N19269 1882 29 NA NA NOT_NAMED 1882-09-15 21:00:00 TS 31.1900 -95.1648 main 0 0 P_____________ AL031882 31.1900 -95.1648 TS 32 -1 TD 6 318
1882255N19269 1882 29 NA NA NOT_NAMED 1882-09-16 00:00:00 TS 31.5000 -95.3000 30 hurdat_atl main 0 O_____________ hurdat_atl AL031882 31.5000 -95.3000 TD 30 -1 7 341

About IBTrACS Database

This database is a web-friendly format of International Best Track Archive for Climate Stewardship (IBTrACS), a global best track data archive curated by NOAA dating back to 1842.

Updated: 2021-11-26